createdAt,value
2017-08-19T00:03:12.074Z,93.33
2017-08-19T00:13:34.679Z,92.75
2017-08-19T00:23:57.369Z,93.28
2017-08-19T00:34:19.340Z,93.73
2017-08-19T00:44:41.480Z,93.60
2017-08-19T00:55:04.423Z,92.78
2017-08-19T01:05:26.440Z,92.08
2017-08-19T01:15:52.794Z,92.79
2017-08-19T01:32:00.096Z,91.64
2017-08-19T01:37:05.249Z,92.77
2017-08-19T01:47:27.151Z,93.05
2017-08-19T01:57:55.106Z,91.38
2017-08-19T02:08:18.024Z,92.94
2017-08-19T02:18:45.864Z,92.69
2017-08-19T02:29:14.776Z,92.69
2017-08-19T02:45:08.194Z,92.92
2017-08-19T02:55:34.173Z,92.65
2017-08-19T03:05:57.993Z,93.51
2017-08-19T03:16:19.931Z,91.95
2017-08-19T03:26:45.739Z,92.18
2017-08-19T03:37:14.281Z,92.29
2017-08-19T03:47:37.028Z,92.47
2017-08-19T03:58:04.467Z,90.28
2017-08-19T04:08:39.042Z,91.32
2017-08-19T04:19:12.925Z,92.70
2017-08-19T04:29:46.884Z,91.71
2017-08-19T04:45:48.818Z,91.55
2017-08-19T04:56:23.346Z,91.67
2017-08-19T05:06:57.518Z,91.46
2017-08-19T05:17:32.220Z,90.41
2017-08-19T05:38:27.898Z,91.44
2017-08-19T05:48:49.749Z,90.41
2017-08-19T05:59:12.414Z,89.19
2017-08-19T06:09:34.419Z,90.83
2017-08-19T06:20:09.782Z,87.33
2017-08-19T06:35:55.746Z,84.51
2017-08-19T06:46:29.745Z,84.89
2017-08-19T06:56:55.634Z,82.65
2017-08-19T07:07:30.302Z,83.63
2017-08-19T07:18:06.635Z,80.77
2017-08-19T07:28:32.146Z,75.59
2017-08-19T07:44:35.345Z,-1
2017-08-19T07:54:56.940Z,74.48
2017-08-19T08:05:19.863Z,70.93
2017-08-19T08:15:42.777Z,73.13
2017-08-19T08:26:04.339Z,67.45
2017-08-19T08:36:25.827Z,66.21
2017-08-19T08:46:48.509Z,69.66
2017-08-19T08:57:12.129Z,69.33
2017-08-19T09:11:33.203Z,70.70
2017-08-19T09:21:56.216Z,69.94
2017-08-19T09:32:17.947Z,65.73
2017-08-19T09:47:56.527Z,66.54
2017-08-19T09:58:19.222Z,64.78
2017-08-19T10:08:58.795Z,66.82
2017-08-19T10:19:21.435Z,68.64
2017-08-19T10:29:44.404Z,70.51
2017-08-19T10:40:06.480Z,75.08
2017-08-19T10:50:40.968Z,79.00
2017-08-19T11:01:03.566Z,76.11
2017-08-19T11:11:26.337Z,72.11
2017-08-19T11:21:49.131Z,75.60
2017-08-19T11:32:11.055Z,71.42
2017-08-19T11:47:53.842Z,65.11
2017-08-19T11:58:20.385Z,68.40
2017-08-19T12:08:43.264Z,71.71
2017-08-19T12:19:05.099Z,66.25
2017-08-19T12:29:27.022Z,67.08
2017-08-19T12:39:49.636Z,61.91
2017-08-19T12:50:12.405Z,59.39
2017-08-19T13:05:51.082Z,57.48
2017-08-19T13:16:13.903Z,56.76
2017-08-19T13:26:38.899Z,54.54
2017-08-19T13:37:00.836Z,57.69
2017-08-19T13:47:23.323Z,52.58
2017-08-19T13:57:45.235Z,51.07
2017-08-19T14:08:08.378Z,52.00
2017-08-19T14:18:30.506Z,51.79
2017-08-19T14:28:57.099Z,51.49
2017-08-19T14:44:35.694Z,48.34
2017-08-19T14:54:57.710Z,51.96
2017-08-19T15:05:20.557Z,53.03
2017-08-19T15:15:42.602Z,50.51
2017-08-19T15:26:05.714Z,51.83
2017-08-19T15:36:27.564Z,52.13
2017-08-19T15:46:50.350Z,53.28
2017-08-19T15:57:13.132Z,58.51
2017-08-19T16:07:39.735Z,60.39
2017-08-19T16:18:02.381Z,67.95
2017-08-19T16:28:25.309Z,72.66
2017-08-19T16:38:47.129Z,78.21
2017-08-19T16:49:09.181Z,83.12
2017-08-19T16:59:32.048Z,83.40
2017-08-19T17:09:55.413Z,85.77
2017-08-19T17:20:18.397Z,87.31
2017-08-19T17:30:40.440Z,88.95
2017-08-19T17:46:16.194Z,89.90
2017-08-19T17:56:37.982Z,89.65
2017-08-19T18:06:59.202Z,88.24
2017-08-19T18:17:21.148Z,86.89
2017-08-19T18:27:41.625Z,88.33
2017-08-19T18:38:04.334Z,89.49
2017-08-19T18:48:27.984Z,89.56
2017-08-19T18:58:50.971Z,89.78
2017-08-19T19:09:14.660Z,90.79
2017-08-19T19:19:36.499Z,90.81
2017-08-19T19:29:59.638Z,91.48
2017-08-19T19:45:39.226Z,90.54
2017-08-19T19:56:02.313Z,92.20
2017-08-19T20:01:07.330Z,92.63
2017-08-19T20:11:29.190Z,92.70
2017-08-19T20:21:52.171Z,92.97
2017-08-19T20:32:13.980Z,91.67
2017-08-19T20:47:52.604Z,92.17
2017-08-19T20:58:15.574Z,92.57
2017-08-19T21:08:38.143Z,92.73
2017-08-19T21:19:00.310Z,92.92
2017-08-19T21:29:22.619Z,92.41
2017-08-19T21:45:02.149Z,92.54
2017-08-19T21:55:24.643Z,93.34
2017-08-19T22:05:46.387Z,93.01
2017-08-19T22:16:09.228Z,93.57
2017-08-19T22:26:31.047Z,93.46
2017-08-19T22:36:53.684Z,93.64
2017-08-19T22:47:16.365Z,93.69
2017-08-19T22:57:38.124Z,92.96
2017-08-19T23:08:00.035Z,93.14
2017-08-19T23:18:23.368Z,93.00
2017-08-19T23:28:45.885Z,92.50
2017-08-19T23:44:24.399Z,92.46
2017-08-19T23:54:46.882Z,90.90
